Latest Weather Observations for Albion Park

IDN60801

Issued at 9:32 am EST Saturday 4 July 2015 (issued every 30 minutes, with the page automatically refreshed every 10 minutes)

About weather observations | Map of weather stations | Latest weather observations for NSW | Other Formats
Station Details ID: 068241 Name: WOLLONGONG AIRPORT Lat: -34.56 Lon: 150.79 Height: 8.0 m
Data from the previous 72 hours. | See also: Recent months at Albion Park
Date/Time
EST
Temp
°C
App
Temp
°C
Dew
Point
Rel
Hum
%
Delta-T
°C
Wind Press
QNH
hPa
Press
MSL
hPa
Rain
since 9 am
mm
Dir
 
Spd
km/h
Gust
km/h
Spd
kts
Gust
kts
04/09:00am 4.8 2.3 3.5 91 0.5 SW 6 9 3 5 1022.5 1022.5 0.0
04/08:30am 4.1 2.3 3.4 95 0.3 SW 2 9 1 5 1022.1 1022.1 0.0
04/08:00am 3.2 1.2 2.5 95 0.3 SW 2 7 1 4 1022.3 1022.3 0.0
04/07:30am 2.2 -1.0 1.0 92 0.5 WSW 7 13 4 7 1022.2 1022.2 0.0
04/07:00am 2.4 -0.2 1.1 91 0.5 SW 4 9 2 5 1022.0 1022.0 0.0
04/06:30am 2.5 -0.4 1.5 93 0.4 WSW 6 13 3 7 1021.9 1021.9 0.0
04/06:00am 3.0 -0.3 2.7 98 0.1 SE 9 11 5 6 1021.5 1021.5 0.0
04/05:30am 2.4 0.8 2.3 99 0.0 CALM 0 0 0 0 1021.6 1021.6 0.0
04/05:00am 2.3 0.6 2.0 98 0.1 CALM 0 0 0 0 1021.7 1021.7 0.0
04/04:30am 1.9 0.1 1.5 97 0.2 CALM 0 6 0 3 1022.0 1022.0 0.0
04/04:00am 2.1 -0.7 1.8 98 0.1 W 6 7 3 4 1022.5 1022.5 0.0
04/03:30am 1.1 -2.1 0.7 97 0.1 W 7 11 4 6 1022.9 1022.9 0.0
04/03:00am 1.3 -1.9 0.9 97 0.1 W 7 9 4 5 1023.2 1023.2 0.0
04/02:30am 2.2 -0.6 1.8 97 0.2 W 6 7 3 4 1023.4 1023.4 0.0
04/02:00am 1.8 0.0 1.4 97 0.2 CALM 0 0 0 0 1023.9 1023.9 0.0
04/01:30am 2.0 0.3 1.7 98 0.1 CALM 0 7 0 4 1023.8 1023.8 0.0
04/01:00am 1.6 -1.3 1.5 99 0.0 NE 6 9 3 5 1024.0 1024.0 0.0
04/12:30am 1.1 -1.5 0.8 98 0.1 W 4 7 2 4 1024.5 1024.5 0.0
04/12:00am 1.4 -0.4 1.0 97 0.1 CALM 0 0 0 0 1024.8 1024.8 0.0
 
Date/Time
EST
Temp
°C
App
Temp
°C
Dew
Point
Rel
Hum
%
Delta-T
°C
Wind Press
QNH
hPa
Press
MSL
hPa
Rain
since 9 am
mm
Dir
 
Spd
km/h
Gust
km/h
Spd
kts
Gust
kts
03/11:30pm 1.8 -1.1 1.4 97 0.2 W 6 7 3 4 1025.3 1025.3 0.0
03/11:00pm 2.1 -0.9 1.7 97 0.2 W 7 9 4 5 1025.5 1025.5 0.0
03/10:30pm 2.6 0.9 2.0 96 0.2 CALM 0 0 0 0 1025.5 1025.5 0.0
03/10:00pm 3.0 0.3 2.4 96 0.2 W 6 9 3 5 1025.7 1025.7 0.0
03/09:30pm 3.0 -0.3 2.4 96 0.2 W 9 11 5 6 1025.7 1025.7 0.0
03/09:00pm 3.4 0.5 2.7 95 0.3 W 7 9 4 5 1025.7 1025.7 0.0
03/08:30pm 3.9 1.3 3.2 95 0.3 W 6 7 3 4 1025.7 1025.7 0.0
03/08:00pm 3.8 1.0 2.9 94 0.4 W 7 9 4 5 1025.7 1025.7 0.0
03/07:30pm 4.1 1.3 3.1 93 0.4 W 7 11 4 6 1025.6 1025.6 0.0
03/07:00pm 4.6 1.8 3.3 91 0.5 W 7 9 4 5 1025.8 1025.8 0.0
03/06:30pm 5.7 2.7 4.3 91 0.6 W 9 11 5 6 1025.7 1025.7 0.0
03/06:00pm 6.5 3.5 4.2 85 1.0 W 9 11 5 6 1025.4 1025.4 0.0
03/05:30pm 8.8 5.9 4.8 76 1.8 WSW 9 13 5 7 1025.2 1025.2 0.0
03/05:00pm 10.4 8.3 4.1 65 2.8 SSW 4 7 2 4 1025.0 1025.0 0.0
03/04:30pm 12.2 9.2 3.9 57 3.7 SE 9 11 5 6 1024.9 1024.9 0.0
03/04:00pm 13.2 9.6 2.7 49 4.6 SSE 11 19 6 10 1024.9 1024.9 0.0
03/03:30pm 13.7 9.7 2.9 48 4.8 S 13 17 7 9 1024.8 1024.8 0.0
03/03:00pm 13.8 10.3 3.3 49 4.7 SSE 11 17 6 9 1024.5 1024.5 0.0
03/02:30pm 13.8 9.8 3.0 48 4.8 S 13 22 7 12 1024.6 1024.6 0.0
03/02:00pm 14.0 9.7 3.5 49 4.7 SSW 15 19 8 10 1024.7 1024.7 0.0
03/01:30pm 13.9 8.8 3.1 48 4.8 S 19 26 10 14 1025.0 1025.0 0.0
03/01:00pm 14.3 9.9 4.6 52 4.5 SSW 17 24 9 13 1025.5 1025.5 0.0
03/12:30pm 14.0 9.4 3.8 50 4.6 SSW 17 22 9 12 1025.9 1025.9 0.0
03/12:00pm 13.5 9.3 3.6 51 4.4 SSW 15 22 8 12 1026.3 1026.3 0.0
03/11:30am 13.2 9.0 3.8 53 4.2 SW 15 24 8 13 1026.7 1026.7 0.0
03/11:00am 12.9 8.7 3.6 53 4.1 SW 15 20 8 11 1027.1 1027.1 0.0
03/10:30am 12.9 7.9 3.8 54 4.1 SW 19 26 10 14 1027.3 1027.3 0.0
03/10:00am 12.2 7.8 2.6 52 4.2 SW 15 22 8 12 1027.3 1027.3 0.0
03/09:30am 11.6 6.8 2.4 53 4.0 W 17 22 9 12 1027.1 1027.1 0.0
03/09:00am 11.0 6.4 1.8 53 3.9 W 15 20 8 11 1026.9 1026.9 0.0
03/08:30am 9.8 6.0 1.7 57 3.4 WSW 11 17 6 9 1026.6 1026.6 0.0
03/08:00am 8.5 3.4 1.0 59 3.0 WSW 17 24 9 13 1026.3 1026.3 0.0
03/07:30am 5.7 1.7 0.7 70 1.9 WSW 11 15 6 8 1026.1 1026.1 0.0
03/07:00am 6.2 2.1 -0.1 64 2.4 W 11 15 6 8 1025.9 1025.9 0.0
03/06:30am 6.9 3.2 0.1 62 2.6 WSW 9 19 5 10 1025.5 1025.5 0.0
03/06:00am 7.5 2.7 0.0 59 2.9 SW 15 22 8 12 1025.1 1025.1 0.0
03/05:30am 7.5 3.4 0.0 59 2.9 WSW 11 17 6 9 1024.9 1024.9 0.0
03/05:00am 6.8 2.0 0.0 62 2.6 W 15 20 8 11 1024.8 1024.8 0.0
03/04:30am 7.2 1.9 -0.3 59 2.9 W 17 22 9 12 1024.6 1024.6 0.0
03/04:00am 8.5 3.2 -0.8 52 3.6 SW 17 30 9 16 1024.4 1024.4 0.0
03/03:30am 9.9 2.5 -0.6 48 4.2 SSW 28 41 15 22 1024.0 1024.0 0.0
03/03:00am 9.6 3.0 -0.6 49 4.0 SSW 24 32 13 17 1024.0 1024.0 0.0
03/02:30am 8.1 1.4 -0.9 53 3.5 SW 24 32 13 17 1024.0 1024.0 0.0
03/02:00am 7.9 1.7 -0.6 55 3.3 WSW 22 33 12 18 1024.3 1024.3 0.0
03/01:30am 8.0 1.8 -0.5 55 3.3 W 22 33 12 18 1024.2 1024.2 0.0
03/01:00am 8.2 1.6 -0.5 54 3.4 WNW 24 32 13 17 1024.3 1024.3 0.0
03/12:30am 7.7 1.9 0.0 58 3.0 WNW 20 30 11 16 1024.2 1024.2 0.0
03/12:00am 9.0 3.7 -0.9 50 3.8 WSW 17 28 9 15 1024.5 1024.5 0.0
 
Date/Time
EST
Temp
°C
App
Temp
°C
Dew
Point
Rel
Hum
%
Delta-T
°C
Wind Press
QNH
hPa
Press
MSL
hPa
Rain
since 9 am
mm
Dir
 
Spd
km/h
Gust
km/h
Spd
kts
Gust
kts
02/11:30pm 9.6 2.2 -0.6 49 4.0 SW 28 43 15 23 1024.3 1024.3 0.0
02/11:00pm 9.8 2.8 -0.7 48 4.1 SW 26 35 14 19 1024.3 1024.3 0.0
02/10:30pm 10.0 3.8 -0.5 48 4.2 WSW 22 32 12 17 1024.3 1024.3 0.0
02/10:00pm 9.2 3.5 -0.9 49 3.9 WSW 19 32 10 17 1023.8 1023.8 0.0
02/09:30pm 10.1 4.4 -0.4 48 4.2 SW 19 32 10 17 1023.8 1023.8 0.0
02/09:00pm 10.4 4.6 -0.4 47 4.3 SW 20 30 11 16 1023.5 1023.5 0.0
02/08:30pm 11.0 4.4 -0.2 46 4.5 SW 24 37 13 20 1023.2 1023.2 0.0
02/08:00pm 10.9 4.2 1.7 53 3.9 SW 26 37 14 20 1022.8 1022.8 0.0
02/07:30pm 11.2 5.9 2.8 56 3.6 SW 20 35 11 19 1022.0 1022.0 0.0
02/07:00pm 11.5 5.4 3.0 56 3.7 SW 24 37 13 20 1021.6 1021.6 0.0
02/06:30pm 11.8 6.5 3.1 55 3.8 SW 20 30 11 16 1020.8 1020.8 0.0
02/06:00pm 12.3 6.9 2.7 52 4.2 SW 20 39 11 21 1020.1 1020.1 0.0
02/05:45pm 12.0 5.6 3.0 54 3.9 WSW 26 37 14 20 1019.7 1019.7 0.0
02/05:30pm 11.8 3.3 3.1 55 3.8 WSW 37 50 20 27 1018.6 1018.6 0.0
02/05:00pm 12.3 4.2 3.0 53 4.1 WSW 35 52 19 28 1017.8 1017.8 0.0
02/04:30pm 12.7 4.3 3.6 54 4.1 W 37 56 20 30 1017.2 1017.2 0.0
02/04:04pm 13.3 6.8 4.5 55 4.0 W 28 50 15 27 1017.2 1017.2 0.0
02/04:00pm 13.4 8.1 4.8 56 4.0 W 22 41 12 22 1017.3 1017.3 0.0
02/03:30pm 13.9 8.2 5.0 55 4.1 W 24 32 13 17 1017.3 1017.3 0.0
02/03:00pm 14.8 7.5 5.6 54 4.4 W 33 46 18 25 1017.1 1017.1 0.0
02/02:42pm 14.9 8.1 4.9 51 4.7 WSW 30 54 16 29 1017.4 1017.4 0.0
02/02:30pm 15.6 7.6 5.5 51 4.8 WSW 37 50 20 27 1016.8 1016.8 0.0
02/02:18pm 15.9 9.6 5.8 51 4.9 W 28 46 15 25 1016.9 1016.9 0.0
02/02:00pm 15.7 9.4 5.6 51 4.8 WNW 28 41 15 22 1016.8 1016.8 0.0
02/01:30pm 15.2 7.1 5.1 51 4.8 W 37 50 20 27 1016.4 1016.4 0.0
02/01:00pm 15.3 4.3 4.9 50 4.9 WSW 52 72 28 39 1016.1 1016.1 0.0
02/12:30pm 15.7 6.8 5.3 50 4.9 WSW 41 59 22 32 1016.3 1016.3 0.0
02/12:02pm 14.9 4.5 4.3 49 4.9 W 48 67 26 36 1016.7 1016.7 0.0
02/12:00pm 15.0 5.1 4.7 50 4.8 WSW 46 61 25 33 1016.8 1016.8 0.0
02/11:32am 14.8 4.9 4.8 51 4.7 WSW 46 65 25 35 1017.4 1017.4 0.0
02/11:30am 14.8 4.5 4.8 51 4.7 WSW 48 65 26 35 1017.4 1017.4 0.0
02/11:00am 14.5 8.0 4.5 51 4.6 W 28 50 15 27 1018.0 1018.0 0.0
02/10:30am 13.9 7.0 4.8 54 4.2 W 30 39 16 21 1018.6 1018.6 0.0
02/10:00am 12.3 3.9 3.8 56 3.8 WSW 37 50 20 27 1019.1 1019.1 0.0
02/09:30am 11.9 4.5 3.9 58 3.6 WSW 32 43 17 23 1018.9 1018.9 0.0
02/09:12am 11.4 2.6 3.4 58 3.5 WSW 39 61 21 33 1018.8 1018.8 0.0
02/09:00am 11.1 3.1 3.6 60 3.3 WSW 35 48 19 26 1018.6 1018.6 0.0
02/08:30am 10.5 0.7 3.1 60 3.2 WSW 44 61 24 33 1019.0 1019.0 0.0
02/08:05am 10.3 1.8 2.9 60 3.2 WSW 37 56 20 30 1019.1 1019.1 0.0
02/08:00am 10.2 1.7 3.0 61 3.1 WSW 37 46 20 25 1019.1 1019.1 0.0
02/07:30am 10.1 3.1 2.2 58 3.3 W 28 46 15 25 1019.4 1019.4 0.0
02/07:04am 10.5 4.2 1.6 54 3.7 NW 24 50 13 27 1019.5 1019.5 0.0
02/07:00am 10.6 5.0 1.4 53 3.8 WNW 20 35 11 19 1019.8 1019.8 0.0
02/06:30am 10.6 2.5 0.9 51 4.0 WSW 33 48 18 26 1019.1 1019.1 0.0
02/06:00am 10.1 -0.4 1.2 54 3.7 WSW 46 59 25 32 1018.5 1018.5 0.0
02/05:30am 9.7 0.9 1.4 56 3.4 W 37 48 20 26 1018.9 1018.9 0.0
02/05:00am 9.3 1.8 1.5 58 3.2 W 30 39 16 21 1019.1 1019.1 0.0
02/04:30am 9.4 1.5 1.3 57 3.3 W 32 44 17 24 1019.1 1019.1 0.0
02/04:00am 8.4 2.1 1.8 63 2.7 WSW 24 35 13 19 1019.5 1019.5 0.0
02/03:30am 8.8 1.7 1.5 60 3.0 W 28 39 15 21 1019.9 1019.9 0.0
02/03:00am 8.8 3.9 1.7 61 2.9 SW 17 35 9 19 1020.1 1020.1 0.0
02/02:30am 8.8 0.8 1.5 60 3.0 W 33 46 18 25 1019.8 1019.8 0.0
02/02:28am 8.9 0.5 1.3 59 3.1 W 35 54 19 29 1019.9 1019.9 0.0
02/02:11am 9.0 1.9 1.2 58 3.2 WNW 28 44 15 24 1019.6 1019.6 0.0
02/02:00am 9.1 4.4 1.0 57 3.3 W 15 20 8 11 1020.2 1020.2 0.0
02/01:30am 9.2 3.3 1.4 58 3.2 W 22 39 12 21 1020.3 1020.3 0.0
02/01:00am 8.3 3.4 1.9 64 2.6 WSW 17 24 9 13 1020.6 1020.6 0.0
02/12:30am 9.1 5.0 2.0 61 3.0 WNW 13 20 7 11 1021.0 1021.0 0.0
02/12:00am 8.0 4.7 2.3 67 2.4 NW 9 13 5 7 1021.3 1021.3 0.0
 
Date/Time
EST
Temp
°C
App
Temp
°C
Dew
Point
Rel
Hum
%
Delta-T
°C
Wind Press
QNH
hPa
Press
MSL
hPa
Rain
since 9 am
mm
Dir
 
Spd
km/h
Gust
km/h
Spd
kts
Gust
kts
01/11:30pm 6.9 3.6 2.4 73 1.9 NW 9 17 5 9 1021.7 1021.7 0.0
01/11:00pm 8.1 5.2 2.8 69 2.2 WSW 7 15 4 8 1021.9 1021.9 0.0
01/10:30pm 8.2 4.2 2.9 69 2.2 W 13 20 7 11 1022.3 1022.3 0.0
01/10:00pm 9.1 2.3 3.3 67 2.5 W 28 46 15 25 1022.2 1022.2 0.0
01/09:30pm 8.5 3.2 3.1 69 2.3 W 20 24 11 13 1022.5 1022.5 0.0
01/09:00pm 9.0 3.8 3.6 69 2.3 W 20 24 11 13 1022.5 1022.5 0.0
01/08:30pm 9.0 4.0 4.4 73 2.0 W 20 24 11 13 1023.0 1023.0 0.0
01/08:00pm 9.0 4.6 4.8 75 1.9 W 17 19 9 10 1023.3 1023.3 0.0
01/07:30pm 7.5 4.0 5.5 87 0.9 WNW 13 17 7 9 1023.4 1023.4 0.0
01/07:00pm 7.7 4.3 6.0 89 0.8 WSW 13 20 7 11 1023.2 1023.2 0.0
01/06:30pm 8.6 8.0 7.2 91 0.7 CALM 0 0 0 0 1023.0 1023.0 0.0
01/06:00pm 9.6 6.6 7.7 88 0.9 WSW 13 15 7 8 1022.9 1022.9 0.0
01/05:30pm 10.9 7.3 8.5 85 1.2 WSW 17 19 9 10 1022.8 1022.8 0.0
01/05:00pm 11.7 9.2 8.4 80 1.6 W 11 13 6 7 1022.6 1022.6 0.0
01/04:30pm 14.6 13.3 9.8 73 2.5 NW 7 11 4 6 1022.4 1022.4 0.0
01/04:00pm 16.2 14.8 7.4 56 4.4 NW 4 7 2 4 1022.6 1022.6 0.0
01/03:30pm 16.2 14.0 7.9 58 4.2 NW 9 11 5 6 1022.6 1022.6 0.0
01/03:00pm 16.0 14.9 7.0 55 4.4 SW 2 7 1 4 1022.6 1022.6 0.0
01/02:30pm 15.2 14.0 8.0 62 3.6 S 4 7 2 4 1023.0 1023.0 0.0
01/02:00pm 15.2 13.5 8.4 64 3.4 S 7 13 4 7 1023.2 1023.2 0.0
01/01:30pm 14.9 12.8 8.4 65 3.3 SE 9 15 5 8 1023.4 1023.4 0.0
01/01:00pm 15.1 13.0 8.3 64 3.4 SE 9 15 5 8 1023.9 1023.9 0.0
01/12:30pm 14.8 12.3 8.1 64 3.4 SW 11 17 6 9 1024.3 1024.3 0.0
01/12:00pm 15.0 12.5 8.0 63 3.5 SSW 11 24 6 13 1024.7 1024.7 0.0
01/11:30am 14.7 11.7 7.7 63 3.5 SSW 13 19 7 10 1025.2 1025.2 0.0
01/11:00am 14.8 12.9 6.9 59 3.8 WSW 6 13 3 7 1025.6 1025.6 0.0
01/10:30am 13.7 11.5 6.1 60 3.6 WSW 7 13 4 7 1026.1 1026.1 0.0
01/10:00am 12.7 8.7 5.1 60 3.5 W 15 20 8 11 1026.3 1026.3 0.0

Other Formats:

Comma delimited format used in spreadsheet applications
http://www.bom.gov.au/fwo/IDN60801/IDN60801.95748.axf

JavaScript Object Notation format (JSON) in row-major order
http://www.bom.gov.au/fwo/IDN60801/IDN60801.95748.json